Time;durP1;ratioP1;P1;durP2;ratioP2;P2;SDS_P1;SDS_P2;PMS_P1;PMS_P2;Temp;Humidity;BMP_temperature;BMP_pressure;BME280_temperature;BME280_humidity;BME280_pressure;Samples;Min_cycle;Max_cycle;Signal;HPM_P1;HPM_P2
2023/12/23 00:00:11;;;;;;;10.75;2.03;;;5.80;99.90;;;;;;5021001;28;20403;-66
2023/12/23 00:02:37;;;;;;;13.18;1.65;;;5.80;99.90;;;;;;5022091;28;20042;-66
2023/12/23 00:05:03;;;;;;;14.77;2.63;;;5.80;99.90;;;;;;5019633;28;21195;-66
2023/12/23 00:07:28;;;;;;;10.07;1.85;;;5.80;99.90;;;;;;5021327;28;20049;-66
2023/12/23 00:09:54;;;;;;;13.23;1.75;;;5.70;99.90;;;;;;5023768;28;20048;-66
2023/12/23 00:12:20;;;;;;;19.35;2.60;;;5.80;99.90;;;;;;5025182;28;20041;-66
2023/12/23 00:14:45;;;;;;;13.80;2.08;;;5.80;99.90;;;;;;5023823;28;20050;-66
2023/12/23 00:17:11;;;;;;;11.73;2.15;;;5.80;99.90;;;;;;5028932;28;20550;-66
2023/12/23 00:19:37;;;;;;;14.77;2.28;;;5.80;99.90;;;;;;5009268;28;20479;-66
2023/12/23 00:22:02;;;;;;;8.75;1.20;;;5.70;99.90;;;;;;5023072;28;20435;-66
2023/12/23 00:24:29;;;;;;;14.95;1.65;;;5.70;99.90;;;;;;5019625;28;20084;-66
2023/12/23 00:26:57;;;;;;;13.93;2.05;;;5.80;99.90;;;;;;5022610;28;20052;-66
2023/12/23 00:29:24;;;;;;;10.88;1.60;;;5.80;99.90;;;;;;5022389;28;20033;-66
2023/12/23 00:31:50;;;;;;;20.67;2.92;;;5.70;99.90;;;;;;5025637;28;20045;-66
2023/12/23 00:34:16;;;;;;;11.38;2.45;;;5.80;99.90;;;;;;5021466;28;20113;-66
2023/12/23 00:36:41;;;;;;;10.57;1.85;;;5.80;99.90;;;;;;5024401;28;20041;-66
2023/12/23 00:39:07;;;;;;;12.50;2.03;;;5.80;99.90;;;;;;5040175;28;20085;-66
2023/12/23 00:41:32;;;;;;;15.73;1.55;;;5.90;99.90;;;;;;5009538;28;20527;-66
2023/12/23 00:43:58;;;;;;;13.60;2.40;;;5.90;99.90;;;;;;5022005;28;20104;-66
2023/12/23 00:46:24;;;;;;;14.73;2.55;;;5.90;99.90;;;;;;5021495;28;20032;-66
2023/12/23 00:48:49;;;;;;;16.13;1.85;;;5.90;99.90;;;;;;5018801;28;20053;-66
2023/12/23 00:51:15;;;;;;;13.00;1.75;;;6.00;99.90;;;;;;5022514;28;20065;-66
2023/12/23 00:53:40;;;;;;;8.32;1.77;;;6.00;99.90;;;;;;5020383;28;20560;-66
2023/12/23 00:56:06;;;;;;;9.48;1.08;;;6.00;99.90;;;;;;5021123;28;20084;-66
2023/12/23 00:58:32;;;;;;;13.50;1.63;;;6.00;99.90;;;;;;5022589;28;20096;-66
2023/12/23 01:00:58;;;;;;;14.85;2.75;;;6.00;99.90;;;;;;5019074;28;20085;-66
2023/12/23 01:03:23;;;;;;;11.43;1.95;;;6.00;99.90;;;;;;5019131;28;20075;-66
2023/12/23 01:05:49;;;;;;;14.20;2.35;;;6.00;99.90;;;;;;5021251;28;20052;-66
2023/12/23 01:08:14;;;;;;;9.63;1.45;;;6.00;99.90;;;;;;5023038;28;20033;-66
2023/12/23 01:10:40;;;;;;;14.45;1.70;;;6.10;99.90;;;;;;5019572;28;20041;-66
2023/12/23 01:13:05;;;;;;;14.70;1.58;;;6.10;99.90;;;;;;5021236;28;20055;-66
2023/12/23 01:15:31;;;;;;;13.82;1.88;;;6.10;99.90;;;;;;5019431;28;20042;-66
2023/12/23 01:17:57;;;;;;;15.23;2.33;;;6.20;99.90;;;;;;5038506;28;20052;-66
2023/12/23 01:20:22;;;;;;;14.75;1.60;;;6.20;99.90;;;;;;5020501;28;20053;-67
2023/12/23 01:22:48;;;;;;;12.98;1.83;;;6.20;99.90;;;;;;5022084;28;20124;-66
2023/12/23 01:25:13;;;;;;;13.07;1.63;;;6.20;99.90;;;;;;5019824;28;20586;-66
2023/12/23 01:27:39;;;;;;;10.82;1.70;;;6.20;99.90;;;;;;5019923;28;20116;-66
2023/12/23 01:30:05;;;;;;;11.45;1.65;;;6.20;99.90;;;;;;5023657;28;20081;-66
2023/12/23 01:32:31;;;;;;;8.98;1.40;;;6.20;99.90;;;;;;5019896;28;20033;-66
2023/12/23 01:34:57;;;;;;;10.80;1.13;;;6.20;99.90;;;;;;5021246;28;20058;-66
2023/12/23 01:37:22;;;;;;;10.32;1.30;;;6.30;99.90;;;;;;5019009;28;20503;-66
2023/12/23 01:39:48;;;;;;;7.93;1.70;;;6.20;99.90;;;;;;5018069;28;20073;-66
2023/12/23 01:42:13;;;;;;;7.97;1.25;;;6.30;99.90;;;;;;5018926;28;20041;-66
2023/12/23 01:44:39;;;;;;;8.48;1.35;;;6.30;99.90;;;;;;5020395;28;20038;-66
2023/12/23 01:47:05;;;;;;;10.82;2.08;;;6.30;99.90;;;;;;5037682;28;20046;-66
2023/12/23 01:49:32;;;;;;;7.75;0.73;;;6.30;99.90;;;;;;5019263;28;20073;-67
2023/12/23 01:51:59;;;;;;;10.10;1.30;;;6.30;99.90;;;;;;5020621;28;20590;-66
2023/12/23 01:54:26;;;;;;;12.90;1.63;;;6.30;99.90;;;;;;5022791;28;20083;-67
2023/12/23 01:56:53;;;;;;;9.40;1.00;;;6.30;99.90;;;;;;5019388;28;20593;-67
2023/12/23 01:59:19;;;;;;;8.25;1.00;;;6.30;99.90;;;;;;5020864;28;20038;-66
2023/12/23 02:01:45;;;;;;;12.32;1.70;;;6.30;99.90;;;;;;5021583;28;20488;-67
2023/12/23 02:04:11;;;;;;;10.50;1.80;;;6.30;99.90;;;;;;5021504;28;20053;-66
2023/12/23 02:06:37;;;;;;;8.48;1.48;;;6.30;99.90;;;;;;5015958;28;20038;-66
2023/12/23 02:09:03;;;;;;;9.50;0.90;;;6.30;99.90;;;;;;5019630;28;20037;-66
2023/12/23 02:11:44;;;;;;;15.73;2.05;;;6.30;99.90;;;;;;5022033;28;20492;-66
2023/12/23 02:14:20;;;;;;;11.30;1.35;;;6.20;99.90;;;;;;5019840;28;20408;-66
2023/12/23 02:16:47;;;;;;;13.77;1.35;;;6.30;99.90;;;;;;5019399;28;20037;-66
2023/12/23 02:19:13;;;;;;;13.43;1.58;;;6.30;99.90;;;;;;5020707;28;20033;-66
2023/12/23 02:21:38;;;;;;;12.57;1.85;;;6.30;99.90;;;;;;5018066;28;20071;-66
2023/12/23 02:24:04;;;;;;;8.80;1.02;;;6.30;99.90;;;;;;5020839;28;20081;-66
2023/12/23 02:26:33;;;;;;;11.43;1.00;;;6.30;99.90;;;;;;5019915;28;20041;-66
2023/12/23 02:29:01;;;;;;;21.80;1.92;;;6.30;99.90;;;;;;5021626;28;20034;-67
2023/12/23 02:31:28;;;;;;;8.48;0.85;;;6.30;99.90;;;;;;5018523;28;20041;-66
2023/12/23 02:33:53;;;;;;;7.80;1.17;;;6.30;99.90;;;;;;5020637;28;20108;-66
2023/12/23 02:36:22;;;;;;;11.32;2.08;;;6.20;99.90;;;;;;5020514;28;20504;-66
2023/12/23 02:38:48;;;;;;;7.30;0.70;;;6.30;99.90;;;;;;5020645;28;20048;-66
2023/12/23 02:41:14;;;;;;;8.30;0.80;;;6.20;99.90;;;;;;5022384;28;20196;-66
2023/12/23 02:43:39;;;;;;;8.57;1.90;;;6.20;99.90;;;;;;5021200;28;20128;-66
2023/12/23 02:46:05;;;;;;;9.35;0.90;;;6.20;99.90;;;;;;5021300;28;20495;-67
2023/12/23 02:48:31;;;;;;;5.88;1.00;;;6.10;99.90;;;;;;5017396;28;20045;-67
2023/12/23 02:50:56;;;;;;;10.77;1.20;;;6.10;99.90;;;;;;5020550;28;20050;-66
2023/12/23 02:53:22;;;;;;;12.50;0.90;;;6.10;99.90;;;;;;5021223;28;20039;-66
2023/12/23 02:55:47;;;;;;;10.35;1.40;;;6.10;99.90;;;;;;5021027;28;20404;-66
2023/12/23 02:58:13;;;;;;;12.13;1.45;;;6.00;99.90;;;;;;5021789;28;20146;-66
2023/12/23 03:00:38;;;;;;;13.10;0.95;;;6.10;99.90;;;;;;5027505;28;20037;-66
2023/12/23 03:03:04;;;;;;;12.75;1.02;;;6.00;99.90;;;;;;5023425;28;20112;-66
2023/12/23 03:05:30;;;;;;;8.93;1.08;;;6.00;99.90;;;;;;5021545;28;20623;-66
2023/12/23 03:07:55;;;;;;;6.85;0.90;;;6.00;99.90;;;;;;5025735;28;20037;-66
2023/12/23 03:10:21;;;;;;;5.80;0.82;;;6.10;99.90;;;;;;5026272;28;20392;-66
2023/12/23 03:12:47;;;;;;;10.05;1.05;;;6.00;99.90;;;;;;5023083;28;20168;-66
2023/12/23 03:15:13;;;;;;;4.93;0.50;;;6.00;99.90;;;;;;5022570;28;20080;-66
2023/12/23 03:17:38;;;;;;;8.85;1.00;;;6.00;99.90;;;;;;5028611;28;20056;-67
2023/12/23 03:20:05;;;;;;;5.93;0.55;;;6.00;99.90;;;;;;5023251;28;20037;-66
2023/12/23 03:22:31;;;;;;;7.25;0.98;;;6.00;99.90;;;;;;5025039;28;20132;-67
2023/12/23 03:24:56;;;;;;;9.60;1.40;;;6.00;99.90;;;;;;5023100;28;20708;-67
2023/12/23 03:27:22;;;;;;;7.07;0.73;;;6.00;99.90;;;;;;5022496;28;20033;-66
2023/12/23 03:29:47;;;;;;;6.68;0.88;;;6.00;99.90;;;;;;5023272;28;20447;-67
2023/12/23 03:32:13;;;;;;;8.40;0.88;;;6.00;99.90;;;;;;5042194;28;20033;-67
2023/12/23 03:34:41;;;;;;;11.60;1.98;;;6.00;99.90;;;;;;5022671;28;20373;-67
2023/12/23 03:37:06;;;;;;;6.60;0.55;;;6.00;99.90;;;;;;5020660;28;20042;-67
2023/12/23 03:39:32;;;;;;;5.88;0.90;;;5.90;99.90;;;;;;5020749;28;20037;-67
2023/12/23 03:41:58;;;;;;;7.18;0.50;;;5.90;99.90;;;;;;5022504;28;20030;-66
2023/12/23 03:44:23;;;;;;;6.40;0.90;;;6.00;99.90;;;;;;5019663;28;20064;-67
2023/12/23 03:46:49;;;;;;;4.07;0.63;;;6.00;99.90;;;;;;5024292;28;20048;-67
2023/12/23 03:49:15;;;;;;;4.15;0.60;;;6.00;99.90;;;;;;5023955;28;20041;-66
2023/12/23 03:51:40;;;;;;;11.27;0.65;;;6.00;99.90;;;;;;5009858;28;20475;-66
2023/12/23 03:54:06;;;;;;;5.95;0.52;;;6.00;99.90;;;;;;5023051;28;20484;-67
2023/12/23 03:56:31;;;;;;;3.90;0.80;;;6.00;99.90;;;;;;5021502;28;20042;-67
2023/12/23 03:58:58;;;;;;;7.93;1.00;;;5.90;99.90;;;;;;5020648;28;20041;-67
2023/12/23 04:01:23;;;;;;;5.68;0.60;;;6.00;99.90;;;;;;5024180;28;20049;-67
2023/12/23 04:03:50;;;;;;;5.40;0.70;;;6.00;99.90;;;;;;5022526;28;20124;-67
2023/12/23 04:06:16;;;;;;;7.45;0.73;;;6.00;99.90;;;;;;5023595;28;20455;-67
2023/12/23 04:08:42;;;;;;;2.92;0.73;;;6.00;99.90;;;;;;5023608;28;20041;-67
2023/12/23 04:11:08;;;;;;;4.50;0.40;;;6.00;99.90;;;;;;5004933;28;20042;-67
2023/12/23 04:13:34;;;;;;;3.63;0.57;;;6.70;99.90;;;;;;5022938;28;20418;-67
2023/12/23 04:16:03;;;;;;;3.30;0.47;;;6.00;99.90;;;;;;5022442;28;20108;-67
2023/12/23 04:18:28;;;;;;;3.47;0.60;;;6.00;99.90;;;;;;5022671;28;20077;-67
2023/12/23 04:20:54;;;;;;;5.90;0.40;;;6.00;99.90;;;;;;5023730;28;20076;-67
2023/12/23 04:23:19;;;;;;;3.75;0.47;;;6.00;99.90;;;;;;5018178;28;20034;-67
2023/12/23 04:25:45;;;;;;;3.95;0.50;;;6.00;99.90;;;;;;5022403;28;20040;-66
2023/12/23 04:28:12;;;;;;;2.55;0.40;;;6.00;99.90;;;;;;5021143;28;20046;-66
2023/12/23 04:30:38;;;;;;;5.00;0.50;;;6.00;99.90;;;;;;5021673;28;20040;-66
2023/12/23 04:33:04;;;;;;;2.35;0.43;;;6.00;99.90;;;;;;5021689;28;20037;-67
2023/12/23 04:35:29;;;;;;;7.43;0.35;;;6.00;99.90;;;;;;5024420;28;20069;-66
2023/12/23 04:37:55;;;;;;;1.90;0.40;;;6.00;99.90;;;;;;5022768;28;20046;-66
2023/12/23 04:40:21;;;;;;;4.28;0.47;;;6.00;99.90;;;;;;5021424;28;20037;-66
2023/12/23 04:42:47;;;;;;;3.40;0.73;;;6.50;99.90;;;;;;5021698;28;20069;-67
2023/12/23 04:45:12;;;;;;;2.92;0.50;;;6.00;99.90;;;;;;5023054;28;20034;-67
2023/12/23 04:47:38;;;;;;;0.85;0.30;;;6.00;99.90;;;;;;5019790;28;20117;-67
2023/12/23 04:50:05;;;;;;;2.30;0.30;;;6.00;99.90;;;;;;5022567;28;20511;-67
2023/12/23 04:52:30;;;;;;;3.47;0.30;;;6.00;99.90;;;;;;5020611;28;20060;-67
2023/12/23 04:54:59;;;;;;;4.38;0.60;;;6.00;99.90;;;;;;5023534;28;20041;-67
2023/12/23 04:57:25;;;;;;;2.28;0.50;;;6.00;99.90;;;;;;5019774;28;20443;-67
2023/12/23 04:59:51;;;;;;;2.13;0.25;;;6.10;99.90;;;;;;5021929;28;20571;-67
2023/12/23 05:02:16;;;;;;;1.88;0.25;;;6.00;99.90;;;;;;5021617;28;20113;-67
2023/12/23 05:04:44;;;;;;;2.30;0.30;;;6.00;99.90;;;;;;5018753;28;20091;-67
2023/12/23 05:07:09;;;;;;;1.83;0.20;;;6.00;99.90;;;;;;5022862;28;20642;-67
2023/12/23 05:09:36;;;;;;;3.00;0.40;;;6.00;99.90;;;;;;5020190;28;20071;-66
2023/12/23 05:12:02;;;;;;;1.13;0.30;;;6.00;99.90;;;;;;5025885;28;20120;-67
2023/12/23 05:14:28;;;;;;;2.17;0.30;;;6.10;99.90;;;;;;5023188;28;20117;-67
2023/12/23 05:16:53;;;;;;;1.83;0.30;;;6.00;99.90;;;;;;5022867;28;20085;-67
2023/12/23 05:19:19;;;;;;;1.95;0.50;;;6.00;99.90;;;;;;5022462;28;20049;-66
2023/12/23 05:21:44;;;;;;;1.90;0.28;;;6.10;99.90;;;;;;5037474;28;20091;-66
2023/12/23 05:24:10;;;;;;;1.27;0.20;;;6.10;99.90;;;;;;5018436;28;20492;-66
2023/12/23 05:26:35;;;;;;;0.45;0.20;;;6.10;99.90;;;;;;5019365;28;20041;-66
2023/12/23 05:29:01;;;;;;;1.08;0.22;;;6.10;99.90;;;;;;5021487;28;20041;-67
2023/12/23 05:31:26;;;;;;;1.23;0.20;;;6.10;99.90;;;;;;5019519;28;20072;-66
2023/12/23 05:33:55;;;;;;;1.27;0.20;;;6.10;99.90;;;;;;5018296;28;20049;-66
2023/12/23 05:36:21;;;;;;;1.35;0.10;;;6.20;99.90;;;;;;5023957;28;20054;-66
2023/12/23 05:38:47;;;;;;;1.50;0.20;;;6.10;99.90;;;;;;5018877;28;20500;-67
2023/12/23 05:41:13;;;;;;;0.70;0.20;;;6.20;99.90;;;;;;5022238;28;20083;-67
2023/12/23 05:43:38;;;;;;;1.95;0.10;;;6.20;99.90;;;;;;5021493;28;20049;-67
2023/12/23 05:46:04;;;;;;;1.42;0.20;;;6.30;99.90;;;;;;5017663;28;20499;-66
2023/12/23 05:48:30;;;;;;;3.45;0.20;;;6.30;99.90;;;;;;5022109;28;20269;-67
2023/12/23 05:50:55;;;;;;;5.43;0.60;;;6.40;99.90;;;;;;5037278;28;20045;-67
2023/12/23 05:53:21;;;;;;;6.68;1.02;;;6.50;99.90;;;;;;5021067;28;20506;-66
2023/12/23 05:55:47;;;;;;;6.55;1.13;;;6.80;99.90;;;;;;5022040;28;20515;-66
2023/12/23 05:58:12;;;;;;;10.63;2.53;;;6.90;99.90;;;;;;5022933;28;20080;-67
2023/12/23 06:00:38;;;;;;;14.88;2.55;;;7.10;99.90;;;;;;5022914;28;20052;-67
2023/12/23 06:03:04;;;;;;;16.88;2.55;;;7.40;99.90;;;;;;5024083;28;20522;-66
2023/12/23 06:05:30;;;;;;;17.65;2.97;;;7.60;99.90;;;;;;5021453;28;20033;-67
2023/12/23 06:07:56;;;;;;;20.73;2.88;;;7.80;99.90;;;;;;5018968;28;20049;-66
2023/12/23 06:10:22;;;;;;;15.02;2.25;;;8.00;99.90;;;;;;5017450;28;20045;-67
2023/12/23 06:12:48;;;;;;;15.93;2.88;;;8.10;99.90;;;;;;5019144;28;20049;-67
2023/12/23 06:15:14;;;;;;;15.45;2.65;;;8.30;99.90;;;;;;5017197;28;20037;-67
2023/12/23 06:17:52;;;;;;;13.95;2.50;;;8.20;99.90;;;;;;5017867;28;20048;-67
2023/12/23 06:20:18;;;;;;;16.90;2.90;;;8.30;99.90;;;;;;5018204;28;20045;-67
2023/12/23 06:22:44;;;;;;;19.55;3.15;;;8.40;99.90;;;;;;5017957;28;20048;-67
2023/12/23 06:25:10;;;;;;;22.50;3.22;;;8.50;99.90;;;;;;5020498;28;20311;-66
2023/12/23 06:27:35;;;;;;;24.52;3.90;;;8.50;99.90;;;;;;5020515;28;20026;-66
2023/12/23 06:30:01;;;;;;;19.58;3.63;;;8.60;99.90;;;;;;5019259;28;20030;-67
2023/12/23 06:32:26;;;;;;;25.67;4.97;;;8.60;99.90;;;;;;5026436;28;20042;-67
2023/12/23 06:34:52;;;;;;;24.23;4.63;;;8.70;99.90;;;;;;5026242;28;20044;-67
2023/12/23 06:37:18;;;;;;;25.13;4.22;;;8.70;99.90;;;;;;5024136;28;20056;-67
2023/12/23 06:39:43;;;;;;;16.13;2.78;;;8.70;99.90;;;;;;5022502;28;20120;-67
2023/12/23 06:42:09;;;;;;;20.42;4.15;;;8.70;99.90;;;;;;5020998;28;20048;-67
2023/12/23 06:44:34;;;;;;;22.35;3.63;;;8.80;99.90;;;;;;5024428;28;20072;-67
2023/12/23 06:47:00;;;;;;;24.77;3.90;;;8.90;99.90;;;;;;5023442;28;20049;-67
2023/12/23 06:49:27;;;;;;;23.48;4.43;;;8.80;99.90;;;;;;5024985;28;20033;-66
2023/12/23 06:51:54;;;;;;;26.67;4.72;;;8.90;99.90;;;;;;5020642;28;20045;-66
2023/12/23 06:54:19;;;;;;;22.58;3.53;;;8.90;99.90;;;;;;5018354;28;20045;-67
2023/12/23 06:56:45;;;;;;;24.55;3.90;;;8.90;99.90;;;;;;5023072;28;20522;-67
2023/12/23 06:59:12;;;;;;;23.15;3.55;;;8.90;99.90;;;;;;5018865;28;20052;-67
2023/12/23 07:01:39;;;;;;;24.55;3.78;;;9.00;99.90;;;;;;5020553;28;20045;-67
2023/12/23 07:04:06;;;;;;;21.60;3.63;;;9.00;99.90;;;;;;5018513;28;20563;-66
2023/12/23 07:06:32;;;;;;;22.02;4.13;;;9.00;99.90;;;;;;5021824;28;20512;-67
2023/12/23 07:08:58;;;;;;;24.20;4.22;;;9.00;99.90;;;;;;5023157;28;20042;-67
2023/12/23 07:11:24;;;;;;;21.90;4.18;;;9.00;99.90;;;;;;5018382;28;20052;-67
2023/12/23 07:13:51;;;;;;;20.20;3.70;;;9.00;99.90;;;;;;5020130;28;20157;-67
2023/12/23 07:16:16;;;;;;;23.13;3.78;;;9.00;99.90;;;;;;5019963;28;20045;-67
2023/12/23 07:18:42;;;;;;;19.42;3.50;;;9.00;99.90;;;;;;5019606;28;20041;-67
2023/12/23 07:21:08;;;;;;;23.75;4.35;;;9.00;99.90;;;;;;5023344;28;20121;-67
2023/12/23 07:23:34;;;;;;;17.35;4.70;;;9.10;99.90;;;;;;5023228;28;20028;-67
2023/12/23 07:26:00;;;;;;;23.83;3.63;;;9.10;99.90;;;;;;5019222;28;20305;-67
2023/12/23 07:28:25;;;;;;;26.60;4.10;;;9.10;99.90;;;;;;5023616;28;20075;-67
2023/12/23 07:30:51;;;;;;;19.40;4.60;;;9.20;99.90;;;;;;5037682;28;20042;-67
2023/12/23 07:33:17;;;;;;;22.75;3.80;;;9.10;99.90;;;;;;5020913;28;20042;-67
2023/12/23 07:35:42;;;;;;;19.25;3.67;;;9.20;99.90;;;;;;5017691;28;20029;-67
2023/12/23 07:38:08;;;;;;;21.40;3.42;;;9.20;99.90;;;;;;5021085;28;20040;-67
2023/12/23 07:40:35;;;;;;;15.20;3.33;;;9.20;99.90;;;;;;5021816;28;20037;-67
2023/12/23 07:43:01;;;;;;;21.65;3.40;;;9.20;99.90;;;;;;5018737;28;20045;-67
2023/12/23 07:45:27;;;;;;;23.70;3.47;;;9.20;99.90;;;;;;5023905;28;20037;-66
2023/12/23 07:47:52;;;;;;;12.20;2.88;;;9.30;99.90;;;;;;5023049;28;20067;-66
2023/12/23 07:50:18;;;;;;;6.25;1.02;;;9.20;99.90;;;;;;5023630;28;20045;-66
2023/12/23 07:52:44;;;;;;;4.38;0.75;;;9.10;99.90;;;;;;5024780;28;20065;-67
2023/12/23 07:55:09;;;;;;;3.72;0.60;;;8.90;99.90;;;;;;5021742;28;20046;-67
2023/12/23 07:57:35;;;;;;;2.45;0.40;;;8.80;99.90;;;;;;5019579;28;20095;-67
2023/12/23 08:00:00;;;;;;;3.80;0.30;;;9.10;99.90;;;;;;5026744;28;20050;-66
2023/12/23 08:02:26;;;;;;;3.05;0.30;;;8.50;99.90;;;;;;5022086;28;20096;-67
2023/12/23 08:04:51;;;;;;;2.75;0.95;;;8.30;99.90;;;;;;5025627;28;20506;-66
2023/12/23 08:07:17;;;;;;;1.75;0.20;;;8.10;99.90;;;;;;5023372;28;20033;-67
2023/12/23 08:09:43;;;;;;;1.08;0.20;;;8.00;99.90;;;;;;5023713;28;20069;-67
2023/12/23 08:12:08;;;;;;;1.05;0.20;;;8.00;99.90;;;;;;5023947;28;20100;-66
2023/12/23 08:14:35;;;;;;;2.25;0.32;;;7.90;99.90;;;;;;5020705;28;20044;-66
2023/12/23 08:17:00;;;;;;;3.70;0.60;;;7.90;99.90;;;;;;5024361;28;20488;-67
2023/12/23 08:19:26;;;;;;;2.05;0.30;;;7.80;99.90;;;;;;5022505;28;20032;-67
2023/12/23 08:21:52;;;;;;;2.83;0.50;;;7.70;99.90;;;;;;5022674;28;21230;-67
2023/12/23 08:24:17;;;;;;;1.77;0.30;;;7.70;99.90;;;;;;5022170;28;20072;-67
2023/12/23 08:26:43;;;;;;;3.88;0.45;;;7.70;99.90;;;;;;5022052;28;20051;-67
2023/12/23 08:29:10;;;;;;;1.33;0.20;;;7.70;99.90;;;;;;5023017;28;20037;-67
2023/12/23 08:31:43;;;;;;;0.75;0.20;;;7.60;99.90;;;;;;5022571;28;20111;-67
2023/12/23 08:34:09;;;;;;;0.90;0.10;;;7.40;99.90;;;;;;5008949;28;20038;-67
2023/12/23 08:36:34;;;;;;;1.30;0.10;;;7.20;99.90;;;;;;5018080;28;20455;-67
2023/12/23 08:39:00;;;;;;;0.10;0.08;;;6.90;99.90;;;;;;5020804;28;20037;-67
2023/12/23 08:41:25;;;;;;;0.25;0.10;;;6.70;99.90;;;;;;5017436;28;20103;-67
2023/12/23 08:43:51;;;;;;;0.25;0.08;;;6.60;99.90;;;;;;5019318;28;20326;-67
2023/12/23 08:46:17;;;;;;;0.25;0.03;;;6.30;99.90;;;;;;5018244;28;20063;-67
2023/12/23 08:48:42;;;;;;;0.30;0.10;;;6.20;99.90;;;;;;5017055;28;20041;-67
2023/12/23 08:51:08;;;;;;;1.40;0.10;;;6.00;99.90;;;;;;5018765;28;20048;-67
2023/12/23 08:53:35;;;;;;;0.13;0.00;;;5.90;99.90;;;;;;5017954;28;20056;-67
2023/12/23 08:56:00;;;;;;;0.65;0.00;;;5.90;99.90;;;;;;5020298;28;20499;-67
2023/12/23 08:58:26;;;;;;;3.55;0.10;;;5.80;99.90;;;;;;5017012;28;20075;-66
2023/12/23 09:00:52;;;;;;;0.52;0.00;;;5.80;99.90;;;;;;5018332;28;20128;-66
2023/12/23 09:03:17;;;;;;;0.88;0.20;;;5.80;99.90;;;;;;5016982;28;20057;-67
2023/12/23 09:05:43;;;;;;;0.30;0.10;;;5.70;99.90;;;;;;5016220;28;20033;-67
2023/12/23 09:08:10;;;;;;;0.40;0.10;;;5.70;99.90;;;;;;5023367;28;20459;-67
2023/12/23 09:10:35;;;;;;;1.42;0.38;;;5.70;99.90;;;;;;5017952;28;20041;-67
2023/12/23 09:13:03;;;;;;;0.57;0.00;;;5.80;99.90;;;;;;5015731;28;20103;-67
2023/12/23 09:15:40;;;;;;;0.70;0.10;;;5.80;99.90;;;;;;5122655;27;20488;-66
2023/12/23 09:18:06;;;;;;;0.38;0.10;;;5.70;99.90;;;;;;5121156;27;20043;-67
2023/12/23 09:20:32;;;;;;;0.40;0.10;;;5.80;99.90;;;;;;5118723;27;20042;-66
2023/12/23 09:22:57;;;;;;;0.22;0.10;;;5.80;99.90;;;;;;5117139;27;20036;-67
2023/12/23 09:25:23;;;;;;;2.15;0.10;;;5.80;99.90;;;;;;5120243;27;20028;-67
2023/12/23 09:27:48;;;;;;;0.95;0.10;;;5.80;99.90;;;;;;5151235;27;20074;-67
2023/12/23 09:30:15;;;;;;;0.70;0.10;;;5.90;99.90;;;;;;5122052;27;20071;-67
2023/12/23 09:32:40;;;;;;;2.28;0.10;;;5.90;99.90;;;;;;5119317;27;20130;-67
2023/12/23 09:35:06;;;;;;;0.95;0.17;;;6.00;99.90;;;;;;5154846;27;20453;-67
2023/12/23 09:37:32;;;;;;;0.45;0.10;;;6.00;99.90;;;;;;5121139;27;20031;-67
2023/12/23 09:39:59;;;;;;;1.33;0.20;;;6.00;99.90;;;;;;5118683;27;20039;-67
2023/12/23 09:42:25;;;;;;;1.45;0.20;;;6.10;99.90;;;;;;5121714;27;20096;-67
2023/12/23 09:44:51;;;;;;;1.25;0.10;;;6.50;99.90;;;;;;5134821;27;20408;-67
2023/12/23 09:47:17;;;;;;;2.22;0.30;;;6.20;99.90;;;;;;5120604;27;20048;-67
2023/12/23 09:49:43;;;;;;;4.45;1.02;;;6.20;99.90;;;;;;5149131;27;20085;-67
2023/12/23 09:52:10;;;;;;;3.28;1.10;;;6.20;99.90;;;;;;5119325;28;20035;-66
2023/12/23 09:54:39;;;;;;;2.55;0.55;;;6.30;99.90;;;;;;5116084;27;20090;-67
2023/12/23 09:57:06;;;;;;;1.10;0.25;;;6.30;99.90;;;;;;5116111;27;20050;-67
2023/12/23 09:59:31;;;;;;;1.42;0.20;;;6.30;99.90;;;;;;5115270;27;20057;-67
2023/12/23 10:01:57;;;;;;;1.42;0.30;;;6.40;99.90;;;;;;5111799;27;20031;-67
2023/12/23 10:04:23;;;;;;;1.70;0.32;;;6.40;99.90;;;;;;5113823;27;20126;-67
2023/12/23 10:06:51;;;;;;;2.80;0.40;;;6.40;99.90;;;;;;5115199;27;20540;-67
2023/12/23 10:09:17;;;;;;;3.13;0.35;;;6.40;99.90;;;;;;5112293;27;20505;-67
2023/12/23 10:11:43;;;;;;;0.65;0.30;;;6.40;99.90;;;;;;5113301;27;20047;-67
2023/12/23 10:14:09;;;;;;;2.08;0.40;;;6.50;99.90;;;;;;5114055;27;20043;-67
2023/12/23 10:16:34;;;;;;;4.65;0.90;;;6.50;99.90;;;;;;5110442;27;20039;-67
2023/12/23 10:19:00;;;;;;;3.05;0.45;;;6.50;99.90;;;;;;5113146;27;20632;-66
2023/12/23 10:21:26;;;;;;;4.53;1.25;;;6.60;99.90;;;;;;5146563;27;20043;-67
2023/12/23 10:23:53;;;;;;;3.75;0.55;;;6.60;99.90;;;;;;5113780;27;20050;-67
2023/12/23 10:26:19;;;;;;;2.40;0.50;;;6.70;99.90;;;;;;5102496;27;20489;-67
2023/12/23 10:28:48;;;;;;;6.78;0.88;;;6.70;99.90;;;;;;5096919;27;20039;-66
2023/12/23 10:31:17;;;;;;;10.02;1.35;;;6.80;99.90;;;;;;5104317;27;20051;-67
2023/12/23 10:33:49;;;;;;;7.90;1.45;;;6.90;99.90;;;;;;5101240;27;20058;-67
2023/12/23 10:36:17;;;;;;;18.35;2.30;;;7.00;99.90;;;;;;5130727;27;20554;-67
2023/12/23 10:38:51;;;;;;;15.27;3.22;;;7.10;99.90;;;;;;5098295;27;20227;-67
2023/12/23 10:41:28;;;;;;;29.77;3.67;;;7.20;99.90;;;;;;5088842;28;20072;-67
2023/12/23 10:43:54;;;;;;;23.52;4.35;;;7.80;99.90;;;;;;5118067;27;20043;-67
2023/12/23 10:46:21;;;;;;;24.13;3.72;;;7.70;99.90;;;;;;5100750;27;20074;-67
2023/12/23 10:48:47;;;;;;;26.30;4.60;;;7.80;99.90;;;;;;5132798;27;20035;-66
2023/12/23 10:51:15;;;;;;;19.40;3.22;;;8.00;99.90;;;;;;5100478;27;20044;-67
2023/12/23 10:53:41;;;;;;;20.75;3.65;;;8.10;99.90;;;;;;5097922;27;20043;-67
2023/12/23 10:56:09;;;;;;;23.60;3.22;;;8.30;99.90;;;;;;5097121;28;20044;-66
2023/12/23 10:58:35;;;;;;;19.50;2.97;;;8.50;99.90;;;;;;5097344;28;20039;-66
2023/12/23 11:01:01;;;;;;;20.60;2.85;;;8.50;99.90;;;;;;5097745;27;20043;-67
2023/12/23 11:03:29;;;;;;;22.80;3.78;;;8.70;99.90;;;;;;5097348;27;20689;-66
2023/12/23 11:05:56;;;;;;;20.95;3.42;;;8.70;99.90;;;;;;5101410;27;20036;-67
2023/12/23 11:08:24;;;;;;;16.35;2.75;;;8.80;99.90;;;;;;5099768;27;20035;-66
2023/12/23 11:10:51;;;;;;;27.90;3.72;;;8.90;99.90;;;;;;5103251;27;20114;-66
2023/12/23 11:13:19;;;;;;;19.15;2.75;;;8.90;99.90;;;;;;5101012;27;20449;-66
2023/12/23 11:15:46;;;;;;;22.30;2.40;;;9.00;99.90;;;;;;5104923;27;20039;-67
2023/12/23 11:18:12;;;;;;;21.05;2.60;;;9.00;99.90;;;;;;5102990;28;20050;-66
2023/12/23 11:20:41;;;;;;;17.55;2.45;;;9.10;99.90;;;;;;5100900;27;20028;-67
2023/12/23 11:23:29;;;;;;;24.23;3.08;;;9.10;99.90;;;;;;5132455;27;20097;-66
2023/12/23 11:25:55;;;;;;;20.13;2.40;;;9.10;99.90;;;;;;5133269;27;20123;-66
2023/12/23 11:28:21;;;;;;;17.13;4.20;;;9.30;99.90;;;;;;5101543;28;20048;-66
2023/12/23 11:30:53;;;;;;;15.00;2.63;;;9.20;99.90;;;;;;5101189;27;20136;-67
2023/12/23 11:33:19;;;;;;;13.23;3.33;;;9.20;99.90;;;;;;5102962;28;20385;-67
2023/12/23 11:35:51;;;;;;;16.92;2.55;;;9.30;99.90;;;;;;5100607;27;20512;-66
2023/12/23 11:38:17;;;;;;;15.55;2.53;;;9.30;99.90;;;;;;5102190;27;20478;-66
2023/12/23 11:40:44;;;;;;;16.95;3.38;;;9.40;99.90;;;;;;5102369;27;20110;-67
2023/12/23 11:43:09;;;;;;;21.17;2.90;;;9.40;99.90;;;;;;5102383;27;20055;-67
2023/12/23 11:45:37;;;;;;;19.10;4.13;;;9.30;99.90;;;;;;5114491;27;20634;-67
2023/12/23 11:48:06;;;;;;;16.40;2.80;;;9.40;99.90;;;;;;5102982;28;20512;-66
2023/12/23 11:50:31;;;;;;;17.83;2.75;;;9.40;99.90;;;;;;5100543;28;20043;-66
2023/12/23 11:52:57;;;;;;;14.63;2.47;;;9.30;99.90;;;;;;5102943;27;20419;-66
2023/12/23 11:55:23;;;;;;;16.42;3.38;;;9.40;99.90;;;;;;5131716;27;20043;-67
2023/12/23 11:57:49;;;;;;;12.32;2.40;;;9.40;99.90;;;;;;5101398;27;20032;-67
2023/12/23 12:00:17;;;;;;;14.80;3.10;;;9.40;99.90;;;;;;5102582;27;20169;-66
2023/12/23 12:02:43;;;;;;;10.82;1.80;;;9.50;99.90;;;;;;5102949;27;20038;-67
2023/12/23 12:05:08;;;;;;;14.48;3.03;;;9.50;99.90;;;;;;5103163;27;20556;-66
2023/12/23 12:07:35;;;;;;;14.05;2.33;;;9.50;99.90;;;;;;5101878;27;20048;-66
2023/12/23 12:10:00;;;;;;;15.57;2.45;;;9.60;99.90;;;;;;5100109;28;20036;-66
2023/12/23 12:12:26;;;;;;;12.60;2.90;;;9.60;99.90;;;;;;5103134;27;20039;-67
2023/12/23 12:14:52;;;;;;;18.45;2.72;;;9.60;99.90;;;;;;5102393;27;20040;-67
2023/12/23 12:17:18;;;;;;;10.75;2.83;;;9.70;99.90;;;;;;5102144;28;20390;-66
2023/12/23 12:19:43;;;;;;;14.75;1.80;;;9.70;99.90;;;;;;5081148;28;20126;-67
2023/12/23 12:22:09;;;;;;;15.30;2.33;;;9.80;99.90;;;;;;5101580;27;20160;-67
2023/12/23 12:24:37;;;;;;;13.18;2.13;;;9.80;99.90;;;;;;5101280;27;20042;-67
2023/12/23 12:27:03;;;;;;;11.23;2.30;;;9.90;99.90;;;;;;5101467;27;20055;-67
2023/12/23 12:29:29;;;;;;;16.13;2.88;;;9.90;99.90;;;;;;5096117;27;20048;-67
2023/12/23 12:31:57;;;;;;;15.10;2.38;;;9.90;99.90;;;;;;5100920;28;20039;-66
2023/12/23 12:34:23;;;;;;;17.02;2.75;;;9.90;99.90;;;;;;5101848;28;20039;-67
2023/12/23 12:36:51;;;;;;;15.15;1.95;;;9.90;99.90;;;;;;5088795;28;20035;-67
2023/12/23 12:39:21;;;;;;;14.20;2.50;;;9.90;99.90;;;;;;5134949;27;20032;-67
2023/12/23 12:41:51;;;;;;;12.27;2.50;;;9.90;99.90;;;;;;5107023;27;20047;-67
2023/12/23 12:44:17;;;;;;;14.05;2.30;;;9.90;99.90;;;;;;5106409;27;20051;-67
2023/12/23 12:46:44;;;;;;;15.70;3.75;;;9.90;99.90;;;;;;5106837;27;20371;-66